sensor_id;sensor_type;location;lat;lon;timestamp;temperature;humidity
9790;DHT22;4934;50.852;8.098;2023-04-25T00:01:40;5.20;99.90
9790;DHT22;4934;50.852;8.098;2023-04-25T00:04:07;5.10;99.90
9790;DHT22;4934;50.852;8.098;2023-04-25T00:06:34;5.10;99.90
9790;DHT22;4934;50.852;8.098;2023-04-25T00:09:05;5.10;99.90
9790;DHT22;4934;50.852;8.098;2023-04-25T00:11:33;5.00;99.90
9790;DHT22;4934;50.852;8.098;2023-04-25T00:13:58;5.00;99.90
9790;DHT22;4934;50.852;8.098;2023-04-25T00:16:27;5.00;99.90
9790;DHT22;4934;50.852;8.098;2023-04-25T00:18:54;5.00;99.90
9790;DHT22;4934;50.852;8.098;2023-04-25T00:21:20;5.00;99.90
9790;DHT22;4934;50.852;8.098;2023-04-25T00:23:46;4.90;99.90
9790;DHT22;4934;50.852;8.098;2023-04-25T00:26:12;5.00;99.90
9790;DHT22;4934;50.852;8.098;2023-04-25T00:28:39;4.90;99.90
9790;DHT22;4934;50.852;8.098;2023-04-25T00:31:05;4.80;99.90
9790;DHT22;4934;50.852;8.098;2023-04-25T00:33:30;4.80;99.90
9790;DHT22;4934;50.852;8.098;2023-04-25T00:35:56;4.80;99.90
9790;DHT22;4934;50.852;8.098;2023-04-25T00:38:22;4.80;99.90
9790;DHT22;4934;50.852;8.098;2023-04-25T00:40:47;4.80;99.90
9790;DHT22;4934;50.852;8.098;2023-04-25T00:43:13;4.80;99.90
9790;DHT22;4934;50.852;8.098;2023-04-25T00:45:39;4.70;99.90
9790;DHT22;4934;50.852;8.098;2023-04-25T00:48:05;4.70;99.90
9790;DHT22;4934;50.852;8.098;2023-04-25T00:50:33;4.60;99.90
9790;DHT22;4934;50.852;8.098;2023-04-25T00:52:59;4.60;99.90
9790;DHT22;4934;50.852;8.098;2023-04-25T00:55:26;4.50;99.90
9790;DHT22;4934;50.852;8.098;2023-04-25T00:57:51;4.50;99.90
9790;DHT22;4934;50.852;8.098;2023-04-25T01:00:18;4.40;99.90
9790;DHT22;4934;50.852;8.098;2023-04-25T01:02:44;4.30;99.90
9790;DHT22;4934;50.852;8.098;2023-04-25T01:05:10;4.40;99.90
9790;DHT22;4934;50.852;8.098;2023-04-25T01:07:37;4.20;99.90
9790;DHT22;4934;50.852;8.098;2023-04-25T01:10:04;4.30;99.90
9790;DHT22;4934;50.852;8.098;2023-04-25T01:12:31;4.30;99.90
9790;DHT22;4934;50.852;8.098;2023-04-25T01:14:57;4.30;99.90
9790;DHT22;4934;50.852;8.098;2023-04-25T01:17:23;4.30;99.90
9790;DHT22;4934;50.852;8.098;2023-04-25T01:19:49;4.20;99.90
9790;DHT22;4934;50.852;8.098;2023-04-25T01:22:17;4.20;99.90
9790;DHT22;4934;50.852;8.098;2023-04-25T01:24:43;4.10;99.90
9790;DHT22;4934;50.852;8.098;2023-04-25T01:27:09;4.10;99.90
9790;DHT22;4934;50.852;8.098;2023-04-25T01:29:36;4.00;99.90
9790;DHT22;4934;50.852;8.098;2023-04-25T01:32:02;4.00;99.90
9790;DHT22;4934;50.852;8.098;2023-04-25T01:34:28;4.00;99.90
9790;DHT22;4934;50.852;8.098;2023-04-25T01:36:54;4.00;99.90
9790;DHT22;4934;50.852;8.098;2023-04-25T01:39:21;4.00;99.90
9790;DHT22;4934;50.852;8.098;2023-04-25T01:41:47;3.90;99.90
9790;DHT22;4934;50.852;8.098;2023-04-25T01:44:13;3.90;99.90
9790;DHT22;4934;50.852;8.098;2023-04-25T01:46:39;3.80;99.90
9790;DHT22;4934;50.852;8.098;2023-04-25T01:49:05;3.70;99.90
9790;DHT22;4934;50.852;8.098;2023-04-25T01:51:31;3.70;99.90
9790;DHT22;4934;50.852;8.098;2023-04-25T01:53:57;3.70;99.90
9790;DHT22;4934;50.852;8.098;2023-04-25T01:56:23;3.80;99.90
9790;DHT22;4934;50.852;8.098;2023-04-25T01:58:49;3.80;99.90
9790;DHT22;4934;50.852;8.098;2023-04-25T02:01:14;3.80;99.90
9790;DHT22;4934;50.852;8.098;2023-04-25T02:03:40;3.80;99.90
9790;DHT22;4934;50.852;8.098;2023-04-25T02:06:06;3.80;99.90
9790;DHT22;4934;50.852;8.098;2023-04-25T02:08:32;3.80;99.90
9790;DHT22;4934;50.852;8.098;2023-04-25T02:10:58;3.90;99.90
9790;DHT22;4934;50.852;8.098;2023-04-25T02:13:23;4.00;99.90
9790;DHT22;4934;50.852;8.098;2023-04-25T02:15:49;4.00;99.90
9790;DHT22;4934;50.852;8.098;2023-04-25T02:18:14;4.10;99.90
9790;DHT22;4934;50.852;8.098;2023-04-25T02:20:42;4.10;99.90
9790;DHT22;4934;50.852;8.098;2023-04-25T02:23:08;4.10;99.90
9790;DHT22;4934;50.852;8.098;2023-04-25T02:25:33;4.10;99.90
9790;DHT22;4934;50.852;8.098;2023-04-25T02:27:59;4.20;99.90
9790;DHT22;4934;50.852;8.098;2023-04-25T02:30:24;4.20;99.90
9790;DHT22;4934;50.852;8.098;2023-04-25T02:32:50;4.20;99.90
9790;DHT22;4934;50.852;8.098;2023-04-25T02:35:16;4.30;99.90
9790;DHT22;4934;50.852;8.098;2023-04-25T02:37:42;4.30;99.90
9790;DHT22;4934;50.852;8.098;2023-04-25T02:40:08;4.40;99.90
9790;DHT22;4934;50.852;8.098;2023-04-25T02:42:34;4.40;99.90
9790;DHT22;4934;50.852;8.098;2023-04-25T02:44:59;4.40;99.90
9790;DHT22;4934;50.852;8.098;2023-04-25T02:47:25;4.50;99.90
9790;DHT22;4934;50.852;8.098;2023-04-25T02:49:51;4.50;99.90
9790;DHT22;4934;50.852;8.098;2023-04-25T02:52:17;4.50;99.90
9790;DHT22;4934;50.852;8.098;2023-04-25T02:54:43;4.50;99.90
9790;DHT22;4934;50.852;8.098;2023-04-25T02:57:08;4.60;99.90
9790;DHT22;4934;50.852;8.098;2023-04-25T02:59:34;4.60;99.90
9790;DHT22;4934;50.852;8.098;2023-04-25T03:02:00;4.60;99.90
9790;DHT22;4934;50.852;8.098;2023-04-25T03:04:26;4.60;99.90
9790;DHT22;4934;50.852;8.098;2023-04-25T03:06:52;4.60;99.90
9790;DHT22;4934;50.852;8.098;2023-04-25T03:09:18;4.50;99.90
9790;DHT22;4934;50.852;8.098;2023-04-25T03:11:44;4.60;99.90
9790;DHT22;4934;50.852;8.098;2023-04-25T03:14:11;4.50;99.90
9790;DHT22;4934;50.852;8.098;2023-04-25T03:16:36;4.50;99.90
9790;DHT22;4934;50.852;8.098;2023-04-25T03:19:03;4.50;99.90
9790;DHT22;4934;50.852;8.098;2023-04-25T03:21:29;4.50;99.90
9790;DHT22;4934;50.852;8.098;2023-04-25T03:23:57;4.50;99.90
9790;DHT22;4934;50.852;8.098;2023-04-25T03:26:23;4.50;99.90
9790;DHT22;4934;50.852;8.098;2023-04-25T03:28:48;4.60;99.90
9790;DHT22;4934;50.852;8.098;2023-04-25T03:31:14;4.60;99.90
9790;DHT22;4934;50.852;8.098;2023-04-25T03:33:40;4.60;99.90
9790;DHT22;4934;50.852;8.098;2023-04-25T03:36:06;4.50;99.90
9790;DHT22;4934;50.852;8.098;2023-04-25T03:38:31;4.50;99.90
9790;DHT22;4934;50.852;8.098;2023-04-25T03:40:57;4.50;99.90
9790;DHT22;4934;50.852;8.098;2023-04-25T03:43:22;4.50;99.90
9790;DHT22;4934;50.852;8.098;2023-04-25T03:45:48;4.40;99.90
9790;DHT22;4934;50.852;8.098;2023-04-25T03:48:14;4.30;99.90
9790;DHT22;4934;50.852;8.098;2023-04-25T03:50:39;4.30;99.90
9790;DHT22;4934;50.852;8.098;2023-04-25T03:53:05;4.20;99.90
9790;DHT22;4934;50.852;8.098;2023-04-25T03:55:31;4.10;99.90
9790;DHT22;4934;50.852;8.098;2023-04-25T03:57:58;4.10;99.90
9790;DHT22;4934;50.852;8.098;2023-04-25T04:00:24;4.10;99.90
9790;DHT22;4934;50.852;8.098;2023-04-25T04:02:50;4.00;99.90
9790;DHT22;4934;50.852;8.098;2023-04-25T04:05:15;4.00;99.90
9790;DHT22;4934;50.852;8.098;2023-04-25T04:07:41;3.90;99.90
9790;DHT22;4934;50.852;8.098;2023-04-25T04:10:11;3.90;99.90
9790;DHT22;4934;50.852;8.098;2023-04-25T04:12:37;3.80;99.90
9790;DHT22;4934;50.852;8.098;2023-04-25T04:15:04;3.80;99.90
9790;DHT22;4934;50.852;8.098;2023-04-25T04:17:30;3.70;99.90
9790;DHT22;4934;50.852;8.098;2023-04-25T04:19:56;3.60;99.90
9790;DHT22;4934;50.852;8.098;2023-04-25T04:22:22;3.70;99.90
9790;DHT22;4934;50.852;8.098;2023-04-25T04:24:48;3.80;99.90
9790;DHT22;4934;50.852;8.098;2023-04-25T04:27:16;3.90;99.90
9790;DHT22;4934;50.852;8.098;2023-04-25T04:29:43;4.00;99.90
9790;DHT22;4934;50.852;8.098;2023-04-25T04:32:09;4.10;99.90
9790;DHT22;4934;50.852;8.098;2023-04-25T04:34:35;4.00;99.90
9790;DHT22;4934;50.852;8.098;2023-04-25T04:37:01;4.00;99.90
9790;DHT22;4934;50.852;8.098;2023-04-25T04:39:26;4.10;99.90
9790;DHT22;4934;50.852;8.098;2023-04-25T04:41:52;4.10;99.90
9790;DHT22;4934;50.852;8.098;2023-04-25T04:44:17;4.00;99.90
9790;DHT22;4934;50.852;8.098;2023-04-25T04:46:43;4.10;99.90
9790;DHT22;4934;50.852;8.098;2023-04-25T04:49:10;4.10;99.90
9790;DHT22;4934;50.852;8.098;2023-04-25T04:51:36;4.10;99.90
9790;DHT22;4934;50.852;8.098;2023-04-25T04:54:02;4.00;99.90
9790;DHT22;4934;50.852;8.098;2023-04-25T04:56:31;4.10;99.90
9790;DHT22;4934;50.852;8.098;2023-04-25T04:59:00;4.10;99.90
9790;DHT22;4934;50.852;8.098;2023-04-25T05:01:27;4.10;99.90
9790;DHT22;4934;50.852;8.098;2023-04-25T05:03:52;4.20;99.90
9790;DHT22;4934;50.852;8.098;2023-04-25T05:06:18;4.20;99.90
9790;DHT22;4934;50.852;8.098;2023-04-25T05:08:44;4.40;99.90
9790;DHT22;4934;50.852;8.098;2023-04-25T05:11:10;4.50;99.90
9790;DHT22;4934;50.852;8.098;2023-04-25T05:13:36;4.60;99.90
9790;DHT22;4934;50.852;8.098;2023-04-25T05:16:02;4.70;99.90
9790;DHT22;4934;50.852;8.098;2023-04-25T05:18:28;4.70;99.90
9790;DHT22;4934;50.852;8.098;2023-04-25T05:20:53;4.80;99.90
9790;DHT22;4934;50.852;8.098;2023-04-25T05:23:19;4.90;99.90
9790;DHT22;4934;50.852;8.098;2023-04-25T05:25:45;4.80;99.90
9790;DHT22;4934;50.852;8.098;2023-04-25T05:28:12;4.90;99.90
9790;DHT22;4934;50.852;8.098;2023-04-25T05:30:38;4.90;99.90
9790;DHT22;4934;50.852;8.098;2023-04-25T05:33:03;4.80;99.90
9790;DHT22;4934;50.852;8.098;2023-04-25T05:35:29;4.80;99.90
9790;DHT22;4934;50.852;8.098;2023-04-25T05:37:54;4.90;99.90
9790;DHT22;4934;50.852;8.098;2023-04-25T05:40:20;4.90;99.90
9790;DHT22;4934;50.852;8.098;2023-04-25T05:42:45;5.00;99.90
9790;DHT22;4934;50.852;8.098;2023-04-25T05:45:11;5.10;99.90
9790;DHT22;4934;50.852;8.098;2023-04-25T05:47:37;5.10;99.90
9790;DHT22;4934;50.852;8.098;2023-04-25T05:50:02;5.10;99.90
9790;DHT22;4934;50.852;8.098;2023-04-25T05:52:28;5.20;99.90
9790;DHT22;4934;50.852;8.098;2023-04-25T05:54:54;5.20;99.90
9790;DHT22;4934;50.852;8.098;2023-04-25T05:57:24;5.20;99.90
9790;DHT22;4934;50.852;8.098;2023-04-25T05:59:50;5.30;99.90
9790;DHT22;4934;50.852;8.098;2023-04-25T06:02:16;5.40;99.90
9790;DHT22;4934;50.852;8.098;2023-04-25T06:04:42;5.50;99.90
9790;DHT22;4934;50.852;8.098;2023-04-25T06:07:08;5.50;99.90
9790;DHT22;4934;50.852;8.098;2023-04-25T06:09:34;5.60;99.90
9790;DHT22;4934;50.852;8.098;2023-04-25T06:12:00;5.70;99.90
9790;DHT22;4934;50.852;8.098;2023-04-25T06:14:26;5.70;99.90
9790;DHT22;4934;50.852;8.098;2023-04-25T06:16:52;5.80;99.90
9790;DHT22;4934;50.852;8.098;2023-04-25T06:19:17;5.90;99.90
9790;DHT22;4934;50.852;8.098;2023-04-25T06:21:44;6.00;99.90
9790;DHT22;4934;50.852;8.098;2023-04-25T06:24:09;6.00;99.90
9790;DHT22;4934;50.852;8.098;2023-04-25T06:26:35;6.10;99.90
9790;DHT22;4934;50.852;8.098;2023-04-25T06:29:01;6.20;99.90
9790;DHT22;4934;50.852;8.098;2023-04-25T06:31:26;6.10;99.90
9790;DHT22;4934;50.852;8.098;2023-04-25T06:33:52;6.20;99.90
9790;DHT22;4934;50.852;8.098;2023-04-25T06:36:20;6.20;99.90
9790;DHT22;4934;50.852;8.098;2023-04-25T06:38:50;6.20;99.90
9790;DHT22;4934;50.852;8.098;2023-04-25T06:41:16;6.30;99.90
9790;DHT22;4934;50.852;8.098;2023-04-25T06:43:42;6.30;99.90
9790;DHT22;4934;50.852;8.098;2023-04-25T06:46:07;6.30;99.90
9790;DHT22;4934;50.852;8.098;2023-04-25T06:48:33;6.10;99.90
9790;DHT22;4934;50.852;8.098;2023-04-25T06:50:58;6.00;99.90
9790;DHT22;4934;50.852;8.098;2023-04-25T06:53:24;6.00;99.90
9790;DHT22;4934;50.852;8.098;2023-04-25T06:55:50;6.00;99.90
9790;DHT22;4934;50.852;8.098;2023-04-25T06:58:15;6.10;99.90
9790;DHT22;4934;50.852;8.098;2023-04-25T07:00:41;6.20;99.90
9790;DHT22;4934;50.852;8.098;2023-04-25T07:03:07;6.40;99.90
9790;DHT22;4934;50.852;8.098;2023-04-25T07:05:32;6.50;99.90
9790;DHT22;4934;50.852;8.098;2023-04-25T07:07:58;6.40;99.90
9790;DHT22;4934;50.852;8.098;2023-04-25T07:10:24;6.50;99.90
9790;DHT22;4934;50.852;8.098;2023-04-25T07:12:50;6.50;99.90
9790;DHT22;4934;50.852;8.098;2023-04-25T07:15:16;6.40;99.90
9790;DHT22;4934;50.852;8.098;2023-04-25T07:17:41;6.20;99.90
9790;DHT22;4934;50.852;8.098;2023-04-25T07:20:08;5.90;99.90
9790;DHT22;4934;50.852;8.098;2023-04-25T07:22:34;5.60;99.90
9790;DHT22;4934;50.852;8.098;2023-04-25T07:25:00;5.40;99.90
9790;DHT22;4934;50.852;8.098;2023-04-25T07:27:26;5.30;99.90
9790;DHT22;4934;50.852;8.098;2023-04-25T07:29:51;4.70;99.90
9790;DHT22;4934;50.852;8.098;2023-04-25T07:32:17;4.30;99.90
9790;DHT22;4934;50.852;8.098;2023-04-25T07:34:43;4.20;99.90
9790;DHT22;4934;50.852;8.098;2023-04-25T07:37:08;4.10;99.90
9790;DHT22;4934;50.852;8.098;2023-04-25T07:39:34;4.30;99.90
9790;DHT22;4934;50.852;8.098;2023-04-25T07:42:00;4.40;99.90
9790;DHT22;4934;50.852;8.098;2023-04-25T07:44:27;4.50;99.90
9790;DHT22;4934;50.852;8.098;2023-04-25T07:46:53;4.60;99.90
9790;DHT22;4934;50.852;8.098;2023-04-25T07:49:18;4.80;99.90
9790;DHT22;4934;50.852;8.098;2023-04-25T07:51:44;4.90;99.90
9790;DHT22;4934;50.852;8.098;2023-04-25T07:54:14;5.00;99.90
9790;DHT22;4934;50.852;8.098;2023-04-25T07:56:39;5.20;99.90
9790;DHT22;4934;50.852;8.098;2023-04-25T07:59:05;5.50;99.90
9790;DHT22;4934;50.852;8.098;2023-04-25T08:01:31;5.70;99.90
9790;DHT22;4934;50.852;8.098;2023-04-25T08:03:57;6.00;99.90
9790;DHT22;4934;50.852;8.098;2023-04-25T08:06:22;6.00;99.90
9790;DHT22;4934;50.852;8.098;2023-04-25T08:08:48;6.10;99.90
9790;DHT22;4934;50.852;8.098;2023-04-25T08:11:13;6.30;99.90
9790;DHT22;4934;50.852;8.098;2023-04-25T08:13:39;6.30;99.90
9790;DHT22;4934;50.852;8.098;2023-04-25T08:16:04;6.20;99.90
9790;DHT22;4934;50.852;8.098;2023-04-25T08:18:30;6.30;99.90
9790;DHT22;4934;50.852;8.098;2023-04-25T08:20:56;6.20;99.90
9790;DHT22;4934;50.852;8.098;2023-04-25T08:23:22;6.30;99.90
9790;DHT22;4934;50.852;8.098;2023-04-25T08:25:47;6.60;99.90
9790;DHT22;4934;50.852;8.098;2023-04-25T08:28:13;6.60;99.90
9790;DHT22;4934;50.852;8.098;2023-04-25T08:30:39;6.50;99.90
9790;DHT22;4934;50.852;8.098;2023-04-25T08:33:05;6.70;99.90
9790;DHT22;4934;50.852;8.098;2023-04-25T08:35:31;6.70;99.90
9790;DHT22;4934;50.852;8.098;2023-04-25T08:37:58;6.50;99.90
9790;DHT22;4934;50.852;8.098;2023-04-25T08:40:27;6.30;99.90
9790;DHT22;4934;50.852;8.098;2023-04-25T08:42:57;6.50;99.90
9790;DHT22;4934;50.852;8.098;2023-04-25T08:45:24;6.40;99.90
9790;DHT22;4934;50.852;8.098;2023-04-25T08:47:52;6.60;99.90
9790;DHT22;4934;50.852;8.098;2023-04-25T08:50:18;6.90;99.90
9790;DHT22;4934;50.852;8.098;2023-04-25T08:52:47;7.00;99.90
9790;DHT22;4934;50.852;8.098;2023-04-25T08:55:13;6.70;99.90
9790;DHT22;4934;50.852;8.098;2023-04-25T08:57:41;6.80;99.90
9790;DHT22;4934;50.852;8.098;2023-04-25T09:00:11;6.80;99.90
9790;DHT22;4934;50.852;8.098;2023-04-25T09:02:39;6.70;99.90
9790;DHT22;4934;50.852;8.098;2023-04-25T09:05:05;6.50;99.90
9790;DHT22;4934;50.852;8.098;2023-04-25T09:07:32;6.80;99.90
9790;DHT22;4934;50.852;8.098;2023-04-25T09:09:58;6.90;99.90
9790;DHT22;4934;50.852;8.098;2023-04-25T09:12:27;6.70;99.90
9790;DHT22;4934;50.852;8.098;2023-04-25T09:17:31;6.80;99.90
9790;DHT22;4934;50.852;8.098;2023-04-25T09:20:08;6.70;99.90
9790;DHT22;4934;50.852;8.098;2023-04-25T09:22:35;6.90;99.90
9790;DHT22;4934;50.852;8.098;2023-04-25T09:25:11;7.00;99.90
9790;DHT22;4934;50.852;8.098;2023-04-25T09:27:49;7.20;99.90
9790;DHT22;4934;50.852;8.098;2023-04-25T09:30:16;7.30;99.90
9790;DHT22;4934;50.852;8.098;2023-04-25T09:32:43;7.30;99.90
9790;DHT22;4934;50.852;8.098;2023-04-25T09:35:09;7.50;99.90
9790;DHT22;4934;50.852;8.098;2023-04-25T09:37:35;7.60;99.90
9790;DHT22;4934;50.852;8.098;2023-04-25T09:40:05;7.60;99.90
9790;DHT22;4934;50.852;8.098;2023-04-25T09:42:31;7.40;99.90
9790;DHT22;4934;50.852;8.098;2023-04-25T09:45:00;7.40;99.90
9790;DHT22;4934;50.852;8.098;2023-04-25T09:47:27;7.50;99.90
9790;DHT22;4934;50.852;8.098;2023-04-25T09:49:54;7.60;99.90
9790;DHT22;4934;50.852;8.098;2023-04-25T09:52:24;7.40;99.90
9790;DHT22;4934;50.852;8.098;2023-04-25T09:54:50;7.60;99.90
9790;DHT22;4934;50.852;8.098;2023-04-25T09:59:48;7.30;99.90
9790;DHT22;4934;50.852;8.098;2023-04-25T10:02:17;7.30;99.90
9790;DHT22;4934;50.852;8.098;2023-04-25T10:04:47;7.10;99.90
9790;DHT22;4934;50.852;8.098;2023-04-25T10:07:14;7.00;99.90
9790;DHT22;4934;50.852;8.098;2023-04-25T10:09:40;7.00;99.90
9790;DHT22;4934;50.852;8.098;2023-04-25T10:12:07;6.90;99.90
9790;DHT22;4934;50.852;8.098;2023-04-25T10:14:34;6.90;99.90
9790;DHT22;4934;50.852;8.098;2023-04-25T10:17:00;6.90;99.90
9790;DHT22;4934;50.852;8.098;2023-04-25T10:19:27;7.20;99.90
9790;DHT22;4934;50.852;8.098;2023-04-25T10:22:08;7.40;99.90
9790;DHT22;4934;50.852;8.098;2023-04-25T10:24:37;7.40;99.90
9790;DHT22;4934;50.852;8.098;2023-04-25T10:27:04;7.60;99.90
9790;DHT22;4934;50.852;8.098;2023-04-25T10:29:31;7.90;99.90
9790;DHT22;4934;50.852;8.098;2023-04-25T10:31:56;7.90;99.90
9790;DHT22;4934;50.852;8.098;2023-04-25T10:34:42;8.10;99.90
9790;DHT22;4934;50.852;8.098;2023-04-25T10:37:09;8.10;99.90
9790;DHT22;4934;50.852;8.098;2023-04-25T10:39:38;8.60;99.90
9790;DHT22;4934;50.852;8.098;2023-04-25T10:42:04;8.90;99.90
9790;DHT22;4934;50.852;8.098;2023-04-25T10:44:30;9.00;99.90
9790;DHT22;4934;50.852;8.098;2023-04-25T10:46:57;9.20;99.90
9790;DHT22;4934;50.852;8.098;2023-04-25T10:49:34;9.40;99.90
9790;DHT22;4934;50.852;8.098;2023-04-25T10:54:46;8.30;99.90
9790;DHT22;4934;50.852;8.098;2023-04-25T10:59:59;8.50;99.90
9790;DHT22;4934;50.852;8.098;2023-04-25T11:02:28;8.60;99.90
9790;DHT22;4934;50.852;8.098;2023-04-25T11:04:54;8.00;99.90
9790;DHT22;4934;50.852;8.098;2023-04-25T11:07:29;7.90;99.90
9790;DHT22;4934;50.852;8.098;2023-04-25T11:09:57;7.90;99.90
9790;DHT22;4934;50.852;8.098;2023-04-25T11:12:26;7.70;99.90
9790;DHT22;4934;50.852;8.098;2023-04-25T11:15:02;7.60;99.90
9790;DHT22;4934;50.852;8.098;2023-04-25T11:17:28;7.60;99.90
9790;DHT22;4934;50.852;8.098;2023-04-25T11:19:54;7.60;99.90
9790;DHT22;4934;50.852;8.098;2023-04-25T11:22:22;7.40;99.90
9790;DHT22;4934;50.852;8.098;2023-04-25T11:24:47;7.40;99.90
9790;DHT22;4934;50.852;8.098;2023-04-25T11:27:13;7.30;99.90
9790;DHT22;4934;50.852;8.098;2023-04-25T11:29:40;7.20;99.90
9790;DHT22;4934;50.852;8.098;2023-04-25T11:32:06;7.30;99.90
9790;DHT22;4934;50.852;8.098;2023-04-25T11:34:32;7.40;99.90
9790;DHT22;4934;50.852;8.098;2023-04-25T11:36:59;7.60;99.90
9790;DHT22;4934;50.852;8.098;2023-04-25T11:39:25;7.90;99.90
9790;DHT22;4934;50.852;8.098;2023-04-25T11:41:52;7.90;99.90
9790;DHT22;4934;50.852;8.098;2023-04-25T11:44:19;7.80;99.90
9790;DHT22;4934;50.852;8.098;2023-04-25T11:46:45;7.90;99.90
9790;DHT22;4934;50.852;8.098;2023-04-25T11:49:11;7.80;99.90
9790;DHT22;4934;50.852;8.098;2023-04-25T11:51:46;7.30;99.90
9790;DHT22;4934;50.852;8.098;2023-04-25T11:54:12;7.20;99.90
9790;DHT22;4934;50.852;8.098;2023-04-25T11:56:41;7.20;99.90
9790;DHT22;4934;50.852;8.098;2023-04-25T11:59:07;7.20;99.90
9790;DHT22;4934;50.852;8.098;2023-04-25T12:01:34;7.20;99.90
9790;DHT22;4934;50.852;8.098;2023-04-25T12:06:37;7.10;99.90
9790;DHT22;4934;50.852;8.098;2023-04-25T12:09:08;7.20;99.90
9790;DHT22;4934;50.852;8.098;2023-04-25T12:11:48;7.30;99.90
9790;DHT22;4934;50.852;8.098;2023-04-25T12:14:22;7.50;99.90
9790;DHT22;4934;50.852;8.098;2023-04-25T12:16:50;7.50;99.90
9790;DHT22;4934;50.852;8.098;2023-04-25T12:19:17;8.00;99.90
9790;DHT22;4934;50.852;8.098;2023-04-25T12:21:44;8.20;99.90
9790;DHT22;4934;50.852;8.098;2023-04-25T12:26:57;8.30;99.90
9790;DHT22;4934;50.852;8.098;2023-04-25T12:29:25;8.40;99.90
9790;DHT22;4934;50.852;8.098;2023-04-25T12:31:52;8.40;99.90
9790;DHT22;4934;50.852;8.098;2023-04-25T12:34:19;8.60;99.90
9790;DHT22;4934;50.852;8.098;2023-04-25T12:36:45;8.70;99.90
9790;DHT22;4934;50.852;8.098;2023-04-25T12:39:18;8.50;99.90
9790;DHT22;4934;50.852;8.098;2023-04-25T12:41:45;8.90;99.90
9790;DHT22;4934;50.852;8.098;2023-04-25T12:44:12;9.30;99.90
9790;DHT22;4934;50.852;8.098;2023-04-25T12:46:38;9.30;99.90
9790;DHT22;4934;50.852;8.098;2023-04-25T12:49:04;9.10;99.90
9790;DHT22;4934;50.852;8.098;2023-04-25T12:51:30;8.70;99.90
9790;DHT22;4934;50.852;8.098;2023-04-25T12:53:58;8.40;99.90
9790;DHT22;4934;50.852;8.098;2023-04-25T12:56:24;8.30;99.90
9790;DHT22;4934;50.852;8.098;2023-04-25T12:58:50;8.30;99.90
9790;DHT22;4934;50.852;8.098;2023-04-25T13:01:16;8.50;99.90
9790;DHT22;4934;50.852;8.098;2023-04-25T13:03:42;8.60;99.90
9790;DHT22;4934;50.852;8.098;2023-04-25T13:06:07;8.60;99.90
9790;DHT22;4934;50.852;8.098;2023-04-25T13:08:33;8.90;99.90
9790;DHT22;4934;50.852;8.098;2023-04-25T13:11:00;9.00;99.90
9790;DHT22;4934;50.852;8.098;2023-04-25T13:13:25;9.20;99.90
9790;DHT22;4934;50.852;8.098;2023-04-25T13:15:52;9.20;99.00
9790;DHT22;4934;50.852;8.098;2023-04-25T13:18:18;8.70;99.90
9790;DHT22;4934;50.852;8.098;2023-04-25T13:20:44;8.90;99.90
9790;DHT22;4934;50.852;8.098;2023-04-25T13:23:11;9.40;99.90
9790;DHT22;4934;50.852;8.098;2023-04-25T13:25:37;9.90;99.90
9790;DHT22;4934;50.852;8.098;2023-04-25T13:28:03;10.30;99.90
9790;DHT22;4934;50.852;8.098;2023-04-25T13:30:28;10.60;99.90
9790;DHT22;4934;50.852;8.098;2023-04-25T13:32:54;10.90;99.90
9790;DHT22;4934;50.852;8.098;2023-04-25T13:35:22;10.90;98.70
9790;DHT22;4934;50.852;8.098;2023-04-25T13:37:48;10.20;97.30
9790;DHT22;4934;50.852;8.098;2023-04-25T13:40:13;9.40;99.30
9790;DHT22;4934;50.852;8.098;2023-04-25T13:42:39;9.00;99.90
9790;DHT22;4934;50.852;8.098;2023-04-25T13:45:06;8.80;99.90
9790;DHT22;4934;50.852;8.098;2023-04-25T13:47:32;8.60;99.60
9790;DHT22;4934;50.852;8.098;2023-04-25T13:49:57;8.50;99.90
9790;DHT22;4934;50.852;8.098;2023-04-25T13:52:23;8.20;99.90
9790;DHT22;4934;50.852;8.098;2023-04-25T13:54:52;8.30;99.90
9790;DHT22;4934;50.852;8.098;2023-04-25T13:57:18;8.30;99.90
9790;DHT22;4934;50.852;8.098;2023-04-25T13:59:44;8.40;99.90
9790;DHT22;4934;50.852;8.098;2023-04-25T14:02:10;8.70;99.90
9790;DHT22;4934;50.852;8.098;2023-04-25T14:04:35;8.40;99.90
9790;DHT22;4934;50.852;8.098;2023-04-25T14:07:02;8.40;99.90
9790;DHT22;4934;50.852;8.098;2023-04-25T14:09:28;8.50;99.90
9790;DHT22;4934;50.852;8.098;2023-04-25T14:11:55;8.60;99.90
9790;DHT22;4934;50.852;8.098;2023-04-25T14:14:21;8.80;99.90
9790;DHT22;4934;50.852;8.098;2023-04-25T14:16:48;8.80;99.90
9790;DHT22;4934;50.852;8.098;2023-04-25T14:19:17;8.60;99.90
9790;DHT22;4934;50.852;8.098;2023-04-25T14:21:43;8.20;99.90
9790;DHT22;4934;50.852;8.098;2023-04-25T14:24:09;8.20;99.90
9790;DHT22;4934;50.852;8.098;2023-04-25T14:26:36;8.20;99.90
9790;DHT22;4934;50.852;8.098;2023-04-25T14:29:03;8.30;99.90
9790;DHT22;4934;50.852;8.098;2023-04-25T14:31:29;8.30;99.90
9790;DHT22;4934;50.852;8.098;2023-04-25T14:33:55;8.40;99.90
9790;DHT22;4934;50.852;8.098;2023-04-25T14:36:21;8.30;99.90
9790;DHT22;4934;50.852;8.098;2023-04-25T14:38:46;8.50;99.90
9790;DHT22;4934;50.852;8.098;2023-04-25T14:41:12;8.70;99.90
9790;DHT22;4934;50.852;8.098;2023-04-25T14:43:38;8.80;99.90
9790;DHT22;4934;50.852;8.098;2023-04-25T14:46:05;8.90;99.90
9790;DHT22;4934;50.852;8.098;2023-04-25T14:48:32;8.30;99.90
9790;DHT22;4934;50.852;8.098;2023-04-25T14:50:57;8.10;99.90
9790;DHT22;4934;50.852;8.098;2023-04-25T14:53:23;8.00;99.90
9790;DHT22;4934;50.852;8.098;2023-04-25T14:55:49;8.00;99.90
9790;DHT22;4934;50.852;8.098;2023-04-25T14:58:15;8.10;99.90
9790;DHT22;4934;50.852;8.098;2023-04-25T15:00:41;8.00;99.90
9790;DHT22;4934;50.852;8.098;2023-04-25T15:03:06;7.90;99.90
9790;DHT22;4934;50.852;8.098;2023-04-25T15:05:34;8.00;99.90
9790;DHT22;4934;50.852;8.098;2023-04-25T15:07:59;7.90;99.90
9790;DHT22;4934;50.852;8.098;2023-04-25T15:10:25;7.80;99.90
9790;DHT22;4934;50.852;8.098;2023-04-25T15:12:51;7.60;99.90
9790;DHT22;4934;50.852;8.098;2023-04-25T15:15:19;7.40;99.90
9790;DHT22;4934;50.852;8.098;2023-04-25T15:17:44;7.50;99.90
9790;DHT22;4934;50.852;8.098;2023-04-25T15:20:12;7.60;99.90
9790;DHT22;4934;50.852;8.098;2023-04-25T15:22:42;7.70;99.90
9790;DHT22;4934;50.852;8.098;2023-04-25T15:25:09;7.80;99.90
9790;DHT22;4934;50.852;8.098;2023-04-25T15:27:35;8.10;99.90
9790;DHT22;4934;50.852;8.098;2023-04-25T15:30:10;8.40;99.90
9790;DHT22;4934;50.852;8.098;2023-04-25T15:32:38;8.70;99.90
9790;DHT22;4934;50.852;8.098;2023-04-25T15:35:05;8.70;99.90
9790;DHT22;4934;50.852;8.098;2023-04-25T15:37:32;8.80;99.90
9790;DHT22;4934;50.852;8.098;2023-04-25T15:40:02;8.80;99.90
9790;DHT22;4934;50.852;8.098;2023-04-25T15:42:35;9.00;99.90
9790;DHT22;4934;50.852;8.098;2023-04-25T15:45:01;8.80;99.90
9790;DHT22;4934;50.852;8.098;2023-04-25T15:47:27;8.60;99.90
9790;DHT22;4934;50.852;8.098;2023-04-25T15:49:52;8.40;99.90
9790;DHT22;4934;50.852;8.098;2023-04-25T15:52:18;8.50;99.90
9790;DHT22;4934;50.852;8.098;2023-04-25T15:54:46;8.40;99.90
9790;DHT22;4934;50.852;8.098;2023-04-25T15:57:12;8.50;99.90
9790;DHT22;4934;50.852;8.098;2023-04-25T15:59:37;8.60;99.90
9790;DHT22;4934;50.852;8.098;2023-04-25T16:02:03;8.70;99.90
9790;DHT22;4934;50.852;8.098;2023-04-25T16:04:29;8.70;99.90
9790;DHT22;4934;50.852;8.098;2023-04-25T16:07:00;8.70;99.90
9790;DHT22;4934;50.852;8.098;2023-04-25T16:09:26;8.60;99.90
9790;DHT22;4934;50.852;8.098;2023-04-25T16:11:51;8.30;99.90
9790;DHT22;4934;50.852;8.098;2023-04-25T16:14:17;7.90;99.90
9790;DHT22;4934;50.852;8.098;2023-04-25T16:16:42;7.70;99.90
9790;DHT22;4934;50.852;8.098;2023-04-25T16:19:09;7.40;99.90
9790;DHT22;4934;50.852;8.098;2023-04-25T16:21:35;7.20;99.90
9790;DHT22;4934;50.852;8.098;2023-04-25T16:24:01;7.10;99.90
9790;DHT22;4934;50.852;8.098;2023-04-25T16:26:26;6.80;99.90
9790;DHT22;4934;50.852;8.098;2023-04-25T16:28:52;6.80;99.90